TimePST,TemperatureF,Dew PointF,Humidity,Sea Level PressureIn,VisibilityMPH,Wind Direction,Wind SpeedMPH,Gust SpeedMPH,PrecipitationIn,Events,Conditions,WindDirDegrees,DateUTC
12:00 AM,33.8,31.1,90,30.19,-9999.0,South,1.2,-,N/A,,Unknown,190,2013-03-09 08:00:00
1:00 AM,30.9,28.9,92,30.21,-9999.0,Calm,Calm,-,N/A,,Unknown,0,2013-03-09 09:00:00
2:00 AM,29.7,28.2,94,30.23,-9999.0,East,1.2,-,N/A,,Unknown,80,2013-03-09 10:00:00
3:00 AM,28.6,27.7,96,30.25,-9999.0,NNE,1.2,-,N/A,,Unknown,20,2013-03-09 11:00:00
4:00 AM,28,27,96,30.26,,WNW,1.2,,,,,290,2013-03-09 12:00:00
5:00 AM,27.9,27.0,96,30.30,-9999.0,East,1.2,-,N/A,,Unknown,100,2013-03-09 13:00:00
6:00 AM,26.6,25.7,96,30.32,-9999.0,NNE,1.2,-,N/A,,Unknown,30,2013-03-09 14:00:00
7:00 AM,27.0,26.2,97,30.34,-9999.0,ENE,1.2,-,N/A,,Unknown,60,2013-03-09 15:00:00
8:00 AM,31.3,31.5,100,30.35,-9999.0,NE,2.3,-,N/A,,Unknown,40,2013-03-09 16:00:00
9:00 AM,37.0,31.6,81,30.36,-9999.0,North,2.3,-,N/A,,Unknown,360,2013-03-09 17:00:00
10:00 AM,41,31,58,30.36,,SW,1.2,,,,,230,2013-03-09 18:00:00
10:00 AM,40.8,31.3,69,30.36,-9999.0,SW,1.2,-,N/A,,Unknown,230,2013-03-09 18:00:00
11:00 AM,44.2,30.7,59,30.36,-9999.0,SW,2.3,-,N/A,,Unknown,230,2013-03-09 19:00:00
12:00 PM,48.0,32.0,54,30.35,-9999.0,SSW,1.2,-,N/A,,Unknown,210,2013-03-09 20:00:00
1:00 PM,51.8,29.3,42,30.33,-9999.0,South,2.3,-,N/A,,Unknown,180,2013-03-09 21:00:00
2:00 PM,52.2,30.9,44,30.32,-9999.0,SSW,4.6,-,N/A,,Unknown,210,2013-03-09 22:00:00
3:00 PM,55.0,27.3,34,30.32,-9999.0,SSW,3.5,-,N/A,,Unknown,200,2013-03-09 23:00:00
4:00 PM,55,26,21,30.32,,South,4.6,,,,,170,2013-03-10 00:00:00
4:00 PM,54.9,26.4,33,30.32,-9999.0,South,4.6,-,N/A,,Unknown,170,2013-03-10 00:00:00
5:00 PM,53.4,27.1,36,30.32,-9999.0,South,5.8,-,N/A,,Unknown,170,2013-03-10 01:00:00
6:00 PM,49.1,28.8,45,30.34,-9999.0,ESE,3.5,-,N/A,,Unknown,110,2013-03-10 02:00:00
7:00 PM,45.9,29.8,54,30.36,-9999.0,South,3.5,-,N/A,,Unknown,180,2013-03-10 03:00:00
8:00 PM,41.0,29.7,64,30.38,-9999.0,NNE,2.3,-,N/A,,Unknown,30,2013-03-10 04:00:00
9:00 PM,36.1,29.5,77,30.38,-9999.0,NE,1.2,-,N/A,,Unknown,40,2013-03-10 05:00:00
10:00 PM,34,29,76,30.38,,NE,2.3,,,,,40,2013-03-10 06:00:00
10:00 PM,34.0,29.3,83,30.38,-9999.0,NE,2.3,-,N/A,,Unknown,40,2013-03-10 06:00:00
11:00 PM,34.0,29.5,84,30.40,-9999.0,ESE,1.2,-,N/A,,Unknown,110,2013-03-10 07:00:00